createdAt,value
2023-01-09T11:13:26.266Z,17.06
2023-01-09T11:16:07.237Z,16.97
2023-01-09T11:18:51.460Z,16.87
2023-01-09T11:21:34.287Z,16.87
2023-01-09T11:24:30.011Z,16.89
2023-01-09T11:27:14.431Z,16.69
2023-01-09T11:29:44.542Z,16.65
2023-01-09T11:32:25.168Z,16.61
2023-01-09T11:34:54.565Z,16.48
2023-01-09T11:37:31.782Z,16.63
2023-01-09T11:40:02.710Z,16.54
2023-01-09T11:42:50.162Z,16.43
2023-01-09T11:45:28.405Z,16.48
2023-01-09T11:47:57.670Z,16.27
2023-01-09T11:50:30.126Z,16.32
2023-01-09T11:53:19.894Z,16.29
2023-01-09T11:56:04.849Z,16.09
2023-01-09T11:58:36.033Z,16.07
2023-01-09T12:01:16.669Z,16.09
2023-01-09T12:04:07.132Z,15.96
2023-01-09T12:07:00.500Z,15.79
2023-01-09T12:09:49.236Z,15.81
2023-01-09T12:12:18.479Z,15.54
2023-01-09T12:15:03.591Z,15.63
2023-01-09T12:17:57.669Z,15.61
2023-01-09T12:20:29.559Z,15.46
2023-01-09T12:23:13.621Z,15.38
2023-01-09T12:26:08.313Z,15.44
2023-01-09T12:29:02.936Z,15.36
2023-01-09T12:31:56.849Z,15.43
2023-01-09T12:34:34.594Z,15.30
2023-01-09T12:37:35.869Z,15.30
2023-01-09T12:40:15.556Z,15.25
2023-01-09T12:43:03.790Z,15.12
2023-01-09T12:45:48.752Z,15.11
2023-01-09T12:48:24.105Z,14.93
2023-01-09T12:51:17.324Z,15.00
2023-01-09T12:54:01.187Z,15.05
2023-01-09T12:56:46.901Z,15.03
2023-01-09T12:59:16.269Z,14.87
2023-01-09T13:01:49.757Z,14.92
2023-01-09T13:04:44.097Z,15.00
2023-01-09T13:07:23.563Z,14.92
2023-01-09T13:10:03.604Z,14.86
2023-01-09T13:12:39.710Z,14.79
2023-01-09T13:15:36.635Z,14.83
2023-01-09T13:18:29.067Z,14.79
2023-01-09T13:20:58.856Z,14.58
2023-01-09T13:23:35.267Z,14.68
2023-01-09T13:26:10.230Z,14.64
2023-01-09T13:28:48.243Z,14.65
2023-01-09T13:31:39.658Z,14.65
2023-01-09T13:34:22.460Z,14.59
2023-01-09T13:36:55.155Z,14.44
2023-01-09T13:39:28.185Z,14.42
2023-01-09T13:42:38.894Z,14.44
2023-01-09T13:45:19.385Z,14.29
2023-01-09T13:48:09.141Z,14.13
2023-01-09T13:50:40.171Z,14.15
2023-01-09T13:53:21.338Z,14.23
2023-01-09T13:56:00.039Z,14.15
2023-01-09T13:58:52.366Z,14.15
2023-01-09T14:01:38.251Z,14.26
2023-01-09T14:04:19.815Z,14.21
2023-01-09T14:07:26.784Z,14.20
2023-01-09T14:10:03.338Z,14.13
2023-01-09T14:12:41.628Z,14.06
2023-01-09T14:15:29.015Z,14.08
2023-01-09T14:18:20.427Z,13.99
2023-01-09T14:20:59.655Z,13.88
2023-01-09T14:23:50.491Z,13.83
2023-01-09T14:26:25.373Z,13.79
2023-01-09T14:29:32.602Z,13.85
2023-01-09T14:32:23.290Z,13.84
2023-01-09T14:35:00.959Z,13.84
2023-01-09T14:37:31.674Z,13.81
2023-01-09T14:40:01.539Z,13.80
2023-01-09T14:42:34.003Z,13.75
2023-01-09T14:45:07.987Z,13.88
2023-01-09T14:47:45.798Z,13.77
2023-01-09T14:50:52.034Z,13.88
2023-01-09T14:53:42.850Z,13.85
2023-01-09T14:56:30.513Z,13.84
2023-01-09T14:59:08.892Z,13.70
2023-01-09T15:01:38.450Z,13.64
2023-01-09T15:04:41.276Z,13.69
2023-01-09T15:07:23.155Z,13.72
2023-01-09T15:09:52.745Z,13.58
2023-01-09T15:12:25.009Z,13.49
2023-01-09T15:15:00.622Z,13.57
2023-01-09T15:17:33.483Z,13.49
2023-01-09T15:20:06.863Z,13.48
2023-01-09T15:22:38.749Z,13.36
2023-01-09T15:25:40.805Z,13.33
2023-01-09T15:28:32.901Z,13.34
2023-01-09T15:31:16.450Z,13.41
2023-01-09T15:33:48.475Z,13.22
2023-01-09T15:36:31.985Z,13.25
2023-01-09T15:39:01.548Z,13.14
2023-01-09T15:41:50.364Z,13.17
2023-01-09T15:44:31.456Z,13.17
2023-01-09T15:47:02.281Z,13.07
2023-01-09T15:49:33.315Z,13.01
2023-01-09T15:52:03.724Z,13.07
2023-01-09T15:54:36.276Z,13.01
2023-01-09T15:57:26.509Z,13.15
2023-01-09T15:59:56.708Z,13.00
2023-01-09T16:02:45.625Z,12.90
2023-01-09T16:05:17.754Z,12.92
2023-01-09T16:07:52.179Z,12.92
2023-01-09T16:10:37.462Z,12.88
2023-01-09T16:13:07.356Z,12.78
2023-01-09T16:15:36.882Z,12.88
2023-01-09T16:18:18.579Z,12.92
2023-01-09T16:20:48.335Z,12.91
2023-01-09T16:23:30.890Z,13.00
2023-01-09T16:26:21.107Z,12.91
2023-01-09T16:28:50.562Z,12.83
2023-01-09T16:31:31.592Z,12.92
2023-01-09T16:34:14.512Z,12.92
2023-01-09T16:36:43.739Z,12.77
2023-01-09T16:39:16.274Z,12.91
2023-01-09T16:42:05.299Z,12.86
2023-01-09T16:44:34.644Z,12.84
2023-01-09T16:47:03.899Z,12.78
2023-01-09T16:49:34.252Z,12.80
2023-01-09T16:52:04.176Z,12.77
2023-01-09T16:54:32.954Z,12.78
2023-01-09T16:57:03.776Z,12.85
2023-01-09T16:59:33.352Z,12.84
2023-01-09T17:02:02.646Z,12.73
2023-01-09T17:04:31.692Z,12.64
2023-01-09T17:07:00.781Z,12.34
2023-01-09T17:09:29.897Z,12.52
2023-01-09T17:11:58.633Z,12.65
2023-01-09T17:14:29.941Z,12.66
2023-01-09T17:16:59.800Z,12.48
2023-01-09T17:19:29.309Z,12.73
2023-01-09T17:21:58.251Z,12.81
2023-01-09T17:24:45.553Z,12.79
2023-01-09T17:27:32.586Z,12.82
2023-01-09T17:30:05.663Z,12.83
2023-01-09T17:32:42.815Z,12.79
2023-01-09T17:35:14.344Z,12.84
2023-01-09T17:37:44.178Z,12.71
2023-01-09T17:40:24.452Z,12.76
2023-01-09T17:42:54.058Z,12.65
2023-01-09T17:45:22.914Z,12.68
2023-01-09T17:47:51.941Z,12.74
2023-01-09T17:50:22.905Z,12.79
2023-01-09T17:52:52.052Z,12.67
2023-01-09T17:55:21.317Z,12.78
2023-01-09T17:57:50.571Z,12.68
2023-01-09T18:00:27.414Z,12.72
2023-01-09T18:02:58.420Z,12.71
2023-01-09T18:05:28.882Z,12.58
2023-01-09T18:07:58.073Z,12.74
2023-01-09T18:10:30.861Z,12.79
2023-01-09T18:13:00.030Z,12.50
2023-01-09T18:15:28.980Z,12.46
2023-01-09T18:17:58.288Z,12.30
2023-01-09T18:20:27.416Z,12.40
2023-01-09T18:22:56.771Z,12.43
2023-01-09T18:25:25.629Z,11.91
2023-01-09T18:27:54.470Z,12.03
2023-01-09T18:30:23.403Z,12.27
2023-01-09T18:32:52.391Z,11.92
2023-01-09T18:35:21.851Z,11.94
2023-01-09T18:37:50.919Z,12.19
2023-01-09T18:40:20.494Z,12.27
2023-01-09T18:42:49.409Z,12.35
2023-01-09T18:45:18.504Z,12.22
2023-01-09T18:47:47.473Z,12.39
2023-01-09T18:50:16.248Z,12.38
2023-01-09T18:52:45.619Z,12.29
2023-01-09T18:55:14.690Z,12.39
2023-01-09T18:57:43.557Z,12.41
2023-01-09T19:00:13.805Z,12.23
2023-01-09T19:02:42.985Z,12.12
2023-01-09T19:05:12.188Z,12.02
2023-01-09T19:07:41.321Z,12.02
2023-01-09T19:10:12.304Z,12.30
2023-01-09T19:12:42.031Z,12.36
2023-01-09T19:15:12.479Z,12.48
2023-01-09T19:17:42.343Z,12.49
2023-01-09T19:20:12.288Z,12.51
2023-01-09T19:22:41.420Z,12.36
2023-01-09T19:25:13.079Z,12.35
2023-01-09T19:27:42.219Z,12.32
2023-01-09T19:30:13.377Z,12.36
2023-01-09T19:32:42.808Z,12.30
2023-01-09T19:35:11.721Z,12.38
2023-01-09T19:37:40.973Z,12.31
2023-01-09T19:40:11.442Z,12.36
2023-01-09T19:42:40.427Z,12.34
2023-01-09T19:45:09.841Z,12.34
2023-01-09T19:47:39.042Z,12.36
2023-01-09T19:50:09.346Z,12.27
2023-01-09T19:52:38.430Z,12.25
2023-01-09T19:55:08.160Z,12.20
2023-01-09T19:57:37.321Z,11.94
2023-01-09T20:00:06.732Z,12.08
2023-01-09T20:02:41.768Z,12.26
2023-01-09T20:05:11.780Z,12.30
2023-01-09T20:07:40.553Z,12.25
2023-01-09T20:10:10.630Z,12.00
2023-01-09T20:12:39.858Z,12.21
2023-01-09T20:15:13.854Z,12.21
2023-01-09T20:17:43.672Z,12.14
2023-01-09T20:20:12.831Z,12.34
2023-01-09T20:22:42.146Z,12.19
2023-01-09T20:25:11.361Z,12.05
2023-01-09T20:27:40.253Z,11.96
2023-01-09T20:30:10.495Z,12.03
2023-01-09T20:32:39.727Z,12.22
2023-01-09T20:35:09.172Z,12.14
2023-01-09T20:37:39.385Z,12.21
2023-01-09T20:40:08.652Z,12.14
2023-01-09T20:42:37.782Z,12.08
2023-01-09T20:45:07.577Z,12.16
2023-01-09T20:47:36.769Z,12.25
2023-01-09T20:50:05.926Z,12.25
2023-01-09T20:52:35.126Z,12.08
2023-01-09T20:55:05.463Z,12.20
2023-01-09T20:57:35.057Z,12.28
2023-01-09T21:00:05.574Z,12.28
2023-01-09T21:02:35.775Z,12.32
2023-01-09T21:05:05.757Z,12.32
2023-01-09T21:07:35.066Z,12.13
2023-01-09T21:10:03.960Z,12.30
2023-01-09T21:12:37.316Z,12.06
2023-01-09T21:15:10.737Z,12.13
2023-01-09T21:17:41.897Z,12.26
2023-01-09T21:20:15.110Z,12.28
2023-01-09T21:22:44.500Z,12.14
2023-01-09T21:25:13.689Z,12.28
2023-01-09T21:27:45.211Z,12.35
2023-01-09T21:30:14.411Z,12.37
2023-01-09T21:32:43.779Z,12.00
2023-01-09T21:35:13.125Z,11.93
2023-01-09T21:37:42.090Z,12.03
2023-01-09T21:40:17.935Z,12.03
2023-01-09T21:43:05.245Z,12.13
2023-01-09T21:45:52.981Z,11.89
2023-01-09T21:48:24.507Z,11.89
2023-01-09T21:50:53.730Z,11.86
2023-01-09T21:53:22.698Z,11.79
2023-01-09T21:55:53.966Z,11.96
2023-01-09T21:58:24.467Z,12.00
2023-01-09T22:00:58.581Z,11.90
2023-01-09T22:03:28.309Z,11.75
2023-01-09T22:05:57.182Z,11.80
2023-01-09T22:08:26.454Z,11.77
2023-01-09T22:10:56.978Z,11.79
2023-01-09T22:13:30.703Z,12.01
2023-01-09T22:16:05.566Z,12.15
2023-01-09T22:18:35.463Z,12.08
2023-01-09T22:21:05.292Z,12.20
2023-01-09T22:23:34.291Z,12.21
2023-01-09T22:26:15.694Z,12.38
2023-01-09T22:28:46.181Z,12.09
2023-01-09T22:31:21.311Z,12.29
2023-01-09T22:33:53.215Z,12.22
2023-01-09T22:36:23.004Z,12.12
2023-01-09T22:38:58.534Z,12.18
2023-01-09T22:41:30.798Z,12.14
2023-01-09T22:44:00.710Z,12.18
2023-01-09T22:46:29.620Z,12.06
2023-01-09T22:48:59.038Z,12.13
2023-01-09T22:51:28.193Z,11.98
2023-01-09T22:53:57.679Z,12.07
2023-01-09T22:56:26.702Z,12.14
2023-01-09T22:58:59.358Z,12.26
2023-01-09T23:01:28.943Z,12.18
2023-01-09T23:03:58.011Z,12.17
2023-01-09T23:06:29.658Z,12.07
2023-01-09T23:08:58.929Z,11.90
2023-01-09T23:11:49.503Z,12.00
2023-01-09T23:14:19.488Z,11.69
2023-01-09T23:16:48.627Z,11.56
2023-01-09T23:19:17.869Z,11.90
2023-01-09T23:21:47.812Z,12.07
2023-01-09T23:24:18.871Z,12.10
2023-01-09T23:26:49.191Z,12.11
2023-01-09T23:29:18.329Z,12.07
2023-01-09T23:31:47.354Z,12.03
2023-01-09T23:34:24.644Z,12.10
2023-01-09T23:36:55.239Z,12.06
2023-01-09T23:39:24.948Z,12.15
2023-01-09T23:42:12.056Z,11.81
2023-01-09T23:44:41.628Z,11.84
2023-01-09T23:47:10.673Z,12.04
2023-01-09T23:49:40.081Z,12.05
2023-01-09T23:52:09.859Z,12.03
2023-01-09T23:54:39.155Z,12.01
2023-01-09T23:57:08.191Z,12.03
2023-01-09T23:59:37.660Z,12.03
